createdAt,value
2023-01-08T00:01:12.513Z,18.73
2023-01-08T00:03:21.099Z,22.37
2023-01-08T00:05:29.617Z,17.60
2023-01-08T00:07:41.181Z,17.07
2023-01-08T00:09:50.698Z,17.17
2023-01-08T00:11:59.167Z,15.63
2023-01-08T00:14:09.146Z,17.77
2023-01-08T00:16:18.851Z,20.20
2023-01-08T00:18:27.372Z,19.57
2023-01-08T00:20:35.845Z,20.87
2023-01-08T00:22:44.370Z,18.27
2023-01-08T00:24:52.845Z,21.73
2023-01-08T00:27:01.341Z,21.83
2023-01-08T00:29:11.301Z,17.70
2023-01-08T00:31:19.779Z,21.13
2023-01-08T00:33:28.341Z,20.83
2023-01-08T00:35:36.879Z,21.50
2023-01-08T00:37:45.347Z,20.40
2023-01-08T00:39:53.857Z,21.17
2023-01-08T00:42:02.317Z,22.13
2023-01-08T00:44:12.171Z,25.90
2023-01-08T00:46:20.808Z,33.10
2023-01-08T00:48:29.520Z,31.30
2023-01-08T00:50:38.061Z,24.93
2023-01-08T00:52:46.566Z,24.57
2023-01-08T00:54:55.153Z,16.27
2023-01-08T00:57:03.648Z,27.03
2023-01-08T00:59:13.610Z,29.40
2023-01-08T01:01:22.288Z,31.67
2023-01-08T01:03:31.019Z,29.37
2023-01-08T01:05:39.499Z,30.27
2023-01-08T01:07:48.267Z,34.77
2023-01-08T01:09:56.723Z,36.40
2023-01-08T01:12:05.311Z,36.93
2023-01-08T01:14:15.215Z,26.40
2023-01-08T01:16:24.019Z,31.47
2023-01-08T01:18:33.137Z,31.03
2023-01-08T01:20:41.572Z,34.07
2023-01-08T01:22:50.123Z,32.60
2023-01-08T01:24:59.081Z,27.43
2023-01-08T01:27:07.633Z,29.00
2023-01-08T01:29:17.521Z,30.77
2023-01-08T01:31:26.607Z,15.27
2023-01-08T01:33:35.113Z,26.77
2023-01-08T01:35:43.585Z,29.20
2023-01-08T01:37:52.010Z,27.23
2023-01-08T01:40:00.542Z,25.87
2023-01-08T01:42:29.200Z,15.17
2023-01-08T01:44:43.365Z,27.87
2023-01-08T01:46:51.958Z,21.20
2023-01-08T01:49:01.953Z,25.20
2023-01-08T01:51:10.394Z,24.13
2023-01-08T01:53:21.070Z,22.47
2023-01-08T01:55:29.841Z,23.43
2023-01-08T01:57:38.757Z,19.80
2023-01-08T01:59:49.311Z,17.90
2023-01-08T02:01:58.318Z,22.10
2023-01-08T02:04:07.692Z,18.43
2023-01-08T02:06:21.081Z,20.70
2023-01-08T02:08:35.212Z,22.10
2023-01-08T02:10:48.840Z,16.90
2023-01-08T02:12:59.665Z,17.00
2023-01-08T02:15:13.758Z,17.97
2023-01-08T02:17:25.235Z,16.33
2023-01-08T02:19:39.315Z,15.80
2023-01-08T02:21:55.528Z,21.60
2023-01-08T02:24:07.551Z,17.37
2023-01-08T02:26:19.274Z,18.60
2023-01-08T02:28:28.204Z,18.53
2023-01-08T02:30:36.908Z,18.90
2023-01-08T02:32:45.444Z,15.00
2023-01-08T02:34:54.679Z,19.13
2023-01-08T02:37:03.339Z,15.33
2023-01-08T02:39:18.095Z,23.40
2023-01-08T02:41:31.882Z,22.53
2023-01-08T02:43:43.482Z,15.33
2023-01-08T02:45:55.321Z,19.20
2023-01-08T02:48:05.829Z,17.10
2023-01-08T02:50:23.684Z,14.23
2023-01-08T02:52:33.653Z,14.87
2023-01-08T02:54:43.186Z,10.00
2023-01-08T02:56:54.722Z,16.70
2023-01-08T02:59:04.206Z,15.60
2023-01-08T03:01:13.941Z,18.50
2023-01-08T03:03:24.440Z,17.30
2023-01-08T03:05:33.115Z,15.27
2023-01-08T03:07:41.692Z,15.20
2023-01-08T03:09:50.266Z,13.93
2023-01-08T03:12:04.344Z,11.03
2023-01-08T03:14:13.962Z,14.70
2023-01-08T03:16:24.991Z,13.67
2023-01-08T03:18:35.280Z,12.63
2023-01-08T03:20:44.560Z,17.53
2023-01-08T03:22:54.822Z,10.63
2023-01-08T03:25:04.256Z,11.83
2023-01-08T03:27:16.971Z,12.47
2023-01-08T03:29:26.037Z,13.63
2023-01-08T03:31:36.002Z,12.60
2023-01-08T03:33:45.561Z,9.40
2023-01-08T03:35:55.666Z,12.87
2023-01-08T03:38:06.603Z,9.77
2023-01-08T03:40:18.903Z,10.57
2023-01-08T03:42:30.167Z,9.67
2023-01-08T03:44:38.811Z,8.83
2023-01-08T03:46:49.857Z,10.83
2023-01-08T03:48:58.829Z,12.20
2023-01-08T03:51:10.036Z,11.10
2023-01-08T03:53:18.540Z,9.13
2023-01-08T03:55:27.038Z,4.73
2023-01-08T03:57:37.408Z,5.63
2023-01-08T03:59:45.927Z,5.93
2023-01-08T04:01:54.511Z,6.70
2023-01-08T04:04:03.159Z,8.50
2023-01-08T04:06:11.718Z,9.07
2023-01-08T04:08:20.149Z,6.57
2023-01-08T04:10:28.685Z,8.13
2023-01-08T04:12:38.781Z,6.87
2023-01-08T04:14:47.329Z,6.27
2023-01-08T04:16:55.888Z,6.90
2023-01-08T04:19:04.463Z,7.37
2023-01-08T04:21:12.917Z,5.67
2023-01-08T04:23:21.430Z,7.00
2023-01-08T04:25:29.893Z,7.70
2023-01-08T04:27:39.825Z,7.00
2023-01-08T04:29:48.359Z,6.37
2023-01-08T04:31:56.854Z,6.40
2023-01-08T04:34:06.165Z,4.97
2023-01-08T04:36:14.838Z,5.70
2023-01-08T04:38:23.295Z,5.57
2023-01-08T04:40:31.970Z,5.43
2023-01-08T04:42:41.853Z,7.67
2023-01-08T04:44:50.667Z,6.07
2023-01-08T04:46:59.128Z,5.23
2023-01-08T04:49:07.638Z,7.50
2023-01-08T04:51:16.314Z,4.20
2023-01-08T04:53:24.812Z,6.90
2023-01-08T04:55:33.411Z,6.73
2023-01-08T04:57:43.482Z,4.30
2023-01-08T04:59:51.995Z,8.43
2023-01-08T05:02:01.066Z,5.63
2023-01-08T05:04:09.612Z,5.93
2023-01-08T05:06:18.236Z,5.33
2023-01-08T05:08:26.855Z,7.00
2023-01-08T05:10:35.297Z,6.63
2023-01-08T05:12:45.167Z,5.63
2023-01-08T05:14:53.613Z,4.90
2023-01-08T05:17:02.125Z,5.83
2023-01-08T05:19:10.605Z,6.23
2023-01-08T05:21:19.075Z,4.53
2023-01-08T05:23:27.573Z,6.27
2023-01-08T05:25:36.729Z,5.03
2023-01-08T05:27:46.616Z,5.03
2023-01-08T05:29:55.079Z,6.37
2023-01-08T05:32:03.588Z,5.63
2023-01-08T05:34:12.021Z,5.37
2023-01-08T05:36:20.655Z,4.83
2023-01-08T05:38:29.106Z,5.00
2023-01-08T05:40:37.559Z,4.30
2023-01-08T05:42:47.396Z,4.87
2023-01-08T05:44:56.091Z,5.43
2023-01-08T05:47:04.488Z,4.77
2023-01-08T05:49:13.012Z,4.63
2023-01-08T05:51:21.515Z,3.93
2023-01-08T05:53:32.050Z,7.53
2023-01-08T05:55:40.557Z,4.77
2023-01-08T05:57:50.791Z,3.57
2023-01-08T05:59:59.263Z,4.33
2023-01-08T06:02:07.804Z,3.67
2023-01-08T06:04:16.306Z,3.80
2023-01-08T06:06:24.819Z,4.73
2023-01-08T06:08:33.552Z,3.40
2023-01-08T06:10:42.015Z,3.47
2023-01-08T06:12:51.899Z,3.50
2023-01-08T06:15:00.372Z,6.60
2023-01-08T06:17:08.896Z,3.27
2023-01-08T06:19:19.033Z,4.90
2023-01-08T06:21:27.555Z,4.07
2023-01-08T06:23:36.023Z,4.77
2023-01-08T06:25:44.567Z,3.37
2023-01-08T06:27:55.025Z,4.77
2023-01-08T06:30:03.466Z,4.43
2023-01-08T06:32:11.970Z,4.47
2023-01-08T06:34:20.418Z,5.27
2023-01-08T06:36:28.984Z,4.03
2023-01-08T06:38:37.667Z,4.77
2023-01-08T06:40:46.168Z,2.97
2023-01-08T06:42:56.077Z,3.73
2023-01-08T06:45:04.494Z,5.37
2023-01-08T06:47:13.054Z,3.57
2023-01-08T06:49:22.239Z,4.00
2023-01-08T06:51:30.742Z,5.40
2023-01-08T06:53:39.249Z,3.30
2023-01-08T06:55:47.750Z,4.93
2023-01-08T06:57:58.318Z,4.43
2023-01-08T07:00:07.519Z,3.77
2023-01-08T07:02:16.868Z,3.77
2023-01-08T07:04:25.467Z,5.10
2023-01-08T07:06:33.986Z,4.00
2023-01-08T07:08:42.399Z,5.20
2023-01-08T07:10:51.207Z,7.23
2023-01-08T07:13:01.123Z,5.53
2023-01-08T07:15:10.120Z,4.63
2023-01-08T07:17:18.599Z,3.17
2023-01-08T07:19:27.108Z,3.57
2023-01-08T07:21:35.617Z,2.37
2023-01-08T07:23:45.606Z,7.80
2023-01-08T07:25:54.064Z,3.47
2023-01-08T07:28:03.973Z,2.97
2023-01-08T07:30:28.399Z,3.03
2023-01-08T07:32:38.065Z,3.47
2023-01-08T07:34:46.588Z,4.27
2023-01-08T07:36:55.034Z,4.53
2023-01-08T07:39:03.733Z,2.90
2023-01-08T07:41:13.336Z,5.10
2023-01-08T07:43:23.357Z,3.40
2023-01-08T07:45:32.351Z,6.10
2023-01-08T07:47:40.863Z,4.00
2023-01-08T07:49:49.383Z,3.40
2023-01-08T07:51:57.858Z,5.03
2023-01-08T07:54:06.522Z,3.67
2023-01-08T07:56:15.031Z,5.30
2023-01-08T07:58:24.984Z,4.40
2023-01-08T08:00:33.511Z,6.07
2023-01-08T08:02:42.050Z,4.27
2023-01-08T08:04:50.623Z,5.63
2023-01-08T08:06:59.258Z,6.07
2023-01-08T08:09:07.825Z,5.93
2023-01-08T08:11:16.339Z,7.50
2023-01-08T08:13:26.172Z,7.53
2023-01-08T08:15:34.864Z,4.43
2023-01-08T08:17:46.328Z,6.87
2023-01-08T08:19:54.863Z,7.43
2023-01-08T08:22:03.270Z,6.60
2023-01-08T08:24:11.846Z,7.00
2023-01-08T08:26:20.270Z,7.70
2023-01-08T08:28:30.133Z,7.63
2023-01-08T08:30:40.638Z,8.27
2023-01-08T08:32:50.733Z,7.93
2023-01-08T08:34:59.241Z,9.00
2023-01-08T08:37:07.753Z,9.73
2023-01-08T08:39:16.196Z,9.47
2023-01-08T08:41:24.692Z,9.70
2023-01-08T08:43:34.683Z,7.93
2023-01-08T08:45:43.219Z,9.70
2023-01-08T08:47:51.674Z,8.17
2023-01-08T08:50:00.180Z,9.93
2023-01-08T08:52:08.615Z,10.20
2023-01-08T08:54:17.065Z,12.47
2023-01-08T08:56:25.506Z,7.70
2023-01-08T08:58:35.423Z,10.13
2023-01-08T09:00:44.440Z,11.33
2023-01-08T09:02:53.075Z,5.90
2023-01-08T09:05:01.596Z,7.80
2023-01-08T09:07:10.075Z,7.87
2023-01-08T09:09:18.687Z,6.60
2023-01-08T09:11:27.161Z,6.33
2023-01-08T09:13:38.106Z,7.10
2023-01-08T09:15:46.592Z,5.63
2023-01-08T09:17:55.732Z,5.17
2023-01-08T09:20:04.221Z,6.27
2023-01-08T09:22:12.844Z,6.13
2023-01-08T09:24:21.362Z,7.43
2023-01-08T09:26:30.408Z,6.87
2023-01-08T09:28:40.273Z,8.50
2023-01-08T09:30:48.694Z,8.97
2023-01-08T09:33:02.297Z,8.17
2023-01-08T09:35:11.737Z,11.53
2023-01-08T09:37:20.248Z,13.10
2023-01-08T09:39:29.083Z,14.33
2023-01-08T09:41:38.799Z,16.23
2023-01-08T09:43:50.259Z,20.63
2023-01-08T09:46:00.355Z,31.77
2023-01-08T09:48:09.616Z,31.93
2023-01-08T09:50:30.547Z,32.80
2023-01-08T09:52:42.108Z,42.50
2023-01-08T09:54:52.002Z,43.43
2023-01-08T09:57:01.079Z,45.40
2023-01-08T09:59:14.643Z,60.70
2023-01-08T10:01:24.768Z,61.70
2023-01-08T10:03:36.876Z,44.93
2023-01-08T10:05:45.656Z,70.53
2023-01-08T10:07:54.251Z,67.60
2023-01-08T10:10:02.928Z,61.63
2023-01-08T10:12:13.380Z,97.17
2023-01-08T10:14:25.300Z,79.80
2023-01-08T10:16:38.024Z,88.60
2023-01-08T10:18:46.542Z,91.77
2023-01-08T10:20:54.977Z,101.20
2023-01-08T10:23:10.661Z,130.83
2023-01-08T10:25:19.920Z,192.70
2023-01-08T10:27:28.573Z,138.77
2023-01-08T10:29:39.858Z,150.17
2023-01-08T10:31:49.676Z,128.13
2023-01-08T10:33:58.141Z,197.63
2023-01-08T10:36:09.194Z,329.40
2023-01-08T10:38:26.104Z,141.97
2023-01-08T10:40:38.549Z,147.77
2023-01-08T10:42:47.782Z,173.60
2023-01-08T10:45:02.048Z,109.23
2023-01-08T10:47:16.480Z,179.57
2023-01-08T10:49:29.138Z,137.33
2023-01-08T10:51:37.729Z,192.80
2023-01-08T10:53:46.437Z,147.43
2023-01-08T10:56:01.232Z,141.20
2023-01-08T10:58:15.763Z,135.03
2023-01-08T11:00:27.018Z,136.40
2023-01-08T11:02:38.679Z,185.10
2023-01-08T11:04:52.427Z,131.93
2023-01-08T11:07:02.092Z,143.23
2023-01-08T11:09:18.012Z,138.50
2023-01-08T11:11:26.748Z,149.07
2023-01-08T11:13:35.283Z,190.73
2023-01-08T11:15:45.824Z,167.50
2023-01-08T11:17:54.410Z,156.90
2023-01-08T11:20:10.463Z,170.90
2023-01-08T11:22:20.361Z,149.33
2023-01-08T11:24:30.263Z,122.87
2023-01-08T11:26:39.140Z,196.83
2023-01-08T11:28:51.045Z,179.20
2023-01-08T11:31:04.977Z,76.23
2023-01-08T11:33:16.847Z,220.20
2023-01-08T11:35:28.545Z,109.37
2023-01-08T11:37:39.314Z,150.13
2023-01-08T11:39:47.899Z,223.73
2023-01-08T11:42:05.296Z,135.10
2023-01-08T11:44:20.357Z,139.03
2023-01-08T11:46:34.576Z,140.87
2023-01-08T11:48:51.228Z,177.17
2023-01-08T11:51:06.786Z,122.40
2023-01-08T11:53:21.332Z,132.13
2023-01-08T11:55:40.794Z,151.00
2023-01-08T11:57:58.667Z,153.77
2023-01-08T12:00:14.922Z,125.50
2023-01-08T12:02:35.787Z,119.70
2023-01-08T12:04:53.699Z,140.83
2023-01-08T12:07:08.103Z,147.27
2023-01-08T12:09:20.729Z,134.90
2023-01-08T12:11:30.933Z,118.10
2023-01-08T12:13:45.519Z,62.40
2023-01-08T12:16:03.885Z,130.10
2023-01-08T12:18:36.376Z,106.90
2023-01-08T12:20:50.257Z,126.40
2023-01-08T12:23:02.217Z,122.70
2023-01-08T12:25:40.699Z,147.00
2023-01-08T12:27:57.535Z,136.03
2023-01-08T12:30:11.385Z,138.67
2023-01-08T12:32:24.270Z,140.00
2023-01-08T12:34:38.821Z,122.47
2023-01-08T12:36:50.096Z,149.33
2023-01-08T12:39:02.457Z,170.03
2023-01-08T12:41:12.856Z,207.73
2023-01-08T12:43:22.267Z,142.60
2023-01-08T12:45:32.294Z,148.63
2023-01-08T12:47:42.369Z,132.37
2023-01-08T12:49:53.053Z,146.60
2023-01-08T12:52:05.027Z,143.33
2023-01-08T12:54:16.874Z,186.87
2023-01-08T12:56:31.871Z,144.13
2023-01-08T12:58:55.809Z,122.87
2023-01-08T13:01:10.041Z,146.13
2023-01-08T13:03:21.786Z,141.00
2023-01-08T13:05:32.537Z,161.90
2023-01-08T13:07:44.709Z,141.77
2023-01-08T13:09:57.012Z,150.70
2023-01-08T13:12:05.675Z,139.67
2023-01-08T13:14:14.919Z,145.40
2023-01-08T13:16:24.516Z,132.00
2023-01-08T13:18:33.209Z,142.30
2023-01-08T13:20:41.830Z,126.90
2023-01-08T13:22:55.370Z,146.73
2023-01-08T13:25:11.035Z,126.93
2023-01-08T13:27:30.504Z,125.67
2023-01-08T13:32:34.678Z,62.83
2023-01-08T13:34:43.280Z,133.23
2023-01-08T13:36:58.655Z,153.80
2023-01-08T13:39:23.330Z,107.87
2023-01-08T13:41:32.751Z,148.20
2023-01-08T13:43:42.132Z,156.97
2023-01-08T13:45:56.234Z,142.57
2023-01-08T13:48:04.973Z,135.30
2023-01-08T13:50:18.221Z,127.57
2023-01-08T13:52:34.517Z,181.43
2023-01-08T13:54:45.249Z,124.50
2023-01-08T13:56:55.603Z,140.10
2023-01-08T13:59:05.519Z,156.40
2023-01-08T14:01:14.515Z,133.27
2023-01-08T14:03:23.973Z,115.47
2023-01-08T14:05:34.716Z,137.03
2023-01-08T14:07:44.446Z,122.63
2023-01-08T14:09:54.671Z,131.50
2023-01-08T14:12:04.637Z,126.17
2023-01-08T14:14:14.476Z,144.93
2023-01-08T14:16:23.015Z,138.10
2023-01-08T14:18:31.581Z,122.97
2023-01-08T14:20:41.105Z,103.70
2023-01-08T14:22:49.584Z,120.87
2023-01-08T14:25:00.156Z,115.23
2023-01-08T14:27:20.703Z,88.20
2023-01-08T14:29:30.826Z,113.27
2023-01-08T14:31:39.493Z,120.00
2023-01-08T14:33:48.986Z,115.70
2023-01-08T14:35:57.969Z,111.73
2023-01-08T14:38:06.648Z,129.27
2023-01-08T14:40:17.154Z,121.93
2023-01-08T14:42:50.122Z,122.73
2023-01-08T14:44:59.265Z,113.07
2023-01-08T14:47:08.378Z,126.20
2023-01-08T14:49:21.259Z,103.10
2023-01-08T14:51:30.933Z,106.37
2023-01-08T14:53:41.064Z,104.50
2023-01-08T14:55:52.092Z,112.80
2023-01-08T14:58:00.556Z,101.07
2023-01-08T15:00:16.831Z,95.17
2023-01-08T15:02:29.199Z,99.90
2023-01-08T15:04:37.882Z,99.70
2023-01-08T15:06:46.644Z,102.97
2023-01-08T15:08:55.291Z,86.10
2023-01-08T15:11:06.713Z,102.70
2023-01-08T15:13:23.857Z,103.43
2023-01-08T15:15:33.787Z,93.70
2023-01-08T15:17:42.357Z,87.30
2023-01-08T15:19:52.880Z,104.17
2023-01-08T15:22:02.348Z,88.27
2023-01-08T15:24:21.094Z,84.17
2023-01-08T15:26:31.055Z,82.00
2023-01-08T15:28:39.715Z,85.60
2023-01-08T15:30:48.425Z,81.33
2023-01-08T15:33:07.396Z,86.03
2023-01-08T15:35:16.723Z,87.13
2023-01-08T15:37:25.157Z,83.00
2023-01-08T15:39:33.742Z,78.37
2023-01-08T15:42:01.444Z,77.43
2023-01-08T15:44:10.490Z,86.60
2023-01-08T15:46:18.920Z,73.73
2023-01-08T15:48:27.349Z,71.10
2023-01-08T15:50:38.949Z,73.17
2023-01-08T15:52:47.418Z,57.13
2023-01-08T15:54:55.840Z,59.93
2023-01-08T15:57:05.732Z,63.53
2023-01-08T15:59:14.184Z,61.00
2023-01-08T16:01:22.712Z,61.73
2023-01-08T16:03:31.526Z,51.10
2023-01-08T16:05:40.037Z,50.97
2023-01-08T16:07:48.981Z,65.17
2023-01-08T16:09:57.510Z,57.83
2023-01-08T16:12:07.978Z,54.37
2023-01-08T16:14:16.619Z,62.10
2023-01-08T16:16:25.085Z,72.47
2023-01-08T16:18:33.598Z,52.83
2023-01-08T16:20:42.137Z,75.10
2023-01-08T16:22:50.617Z,70.83
2023-01-08T16:24:59.092Z,69.47
2023-01-08T16:27:10.037Z,75.97
2023-01-08T16:29:18.524Z,59.77
2023-01-08T16:31:26.967Z,71.60
2023-01-08T16:33:35.653Z,64.47
2023-01-08T16:35:44.182Z,50.40
2023-01-08T16:37:52.853Z,54.73
2023-01-08T16:40:01.420Z,61.30
2023-01-08T16:42:12.077Z,63.37
2023-01-08T16:44:20.996Z,62.73
2023-01-08T16:46:29.899Z,64.57
2023-01-08T16:48:38.389Z,60.97
2023-01-08T16:50:46.965Z,74.63
2023-01-08T16:52:55.518Z,80.10
2023-01-08T16:55:05.958Z,84.57
2023-01-08T16:57:15.884Z,83.67
2023-01-08T16:59:26.713Z,86.73
2023-01-08T17:01:35.240Z,82.13
2023-01-08T17:03:43.732Z,76.37
2023-01-08T17:05:52.390Z,74.40
2023-01-08T17:08:00.807Z,82.47
2023-01-08T17:10:10.092Z,72.73
2023-01-08T17:12:22.528Z,78.47
2023-01-08T17:14:31.295Z,87.93
2023-01-08T17:16:41.540Z,73.23
2023-01-08T17:18:50.071Z,88.87
2023-01-08T17:20:58.524Z,77.40
2023-01-08T17:23:06.985Z,78.77
2023-01-08T17:25:15.455Z,78.97
2023-01-08T17:27:25.376Z,86.47
2023-01-08T17:29:33.781Z,98.30
2023-01-08T17:31:42.248Z,65.53
2023-01-08T17:33:51.474Z,82.83
2023-01-08T17:36:00.169Z,91.67
2023-01-08T17:38:08.653Z,95.37
2023-01-08T17:40:17.289Z,87.63
2023-01-08T17:42:26.901Z,89.33
2023-01-08T17:44:35.447Z,92.20
2023-01-08T17:46:45.320Z,94.27
2023-01-08T17:48:53.894Z,93.03
2023-01-08T17:51:02.693Z,91.87
2023-01-08T17:53:11.258Z,82.13
2023-01-08T17:55:19.909Z,100.80
2023-01-08T17:57:31.609Z,100.30
2023-01-08T17:59:40.133Z,114.32
2023-01-08T18:01:48.801Z,92.30
2023-01-08T18:03:57.331Z,98.37
2023-01-08T18:06:08.957Z,80.87
2023-01-08T18:08:17.497Z,75.93
2023-01-08T18:10:25.987Z,74.67
2023-01-08T18:12:35.763Z,73.13
2023-01-08T18:14:44.261Z,74.67
2023-01-08T18:16:53.968Z,80.63
2023-01-08T18:19:02.573Z,69.97
2023-01-08T18:21:11.286Z,72.47
2023-01-08T18:23:19.674Z,69.93
2023-01-08T18:25:28.152Z,69.50
2023-01-08T18:27:38.041Z,67.93
2023-01-08T18:29:46.524Z,67.57
2023-01-08T18:31:55.178Z,62.73
2023-01-08T18:34:04.487Z,62.73
2023-01-08T18:36:13.667Z,57.23
2023-01-08T18:38:23.264Z,57.03
2023-01-08T18:40:31.835Z,51.43
2023-01-08T18:42:41.694Z,44.17
2023-01-08T18:44:52.615Z,51.47
2023-01-08T18:47:01.119Z,47.03
2023-01-08T18:49:09.712Z,39.40
2023-01-08T18:51:18.214Z,37.90
2023-01-08T18:53:27.840Z,43.37
2023-01-08T18:55:36.441Z,25.17
2023-01-08T18:57:47.355Z,36.97
2023-01-08T18:59:55.947Z,38.00
2023-01-08T19:02:04.531Z,41.87
2023-01-08T19:04:16.919Z,38.53
2023-01-08T19:06:25.703Z,30.93
2023-01-08T19:08:34.197Z,28.43
2023-01-08T19:10:42.653Z,26.90
2023-01-08T19:12:52.630Z,21.43
2023-01-08T19:15:01.130Z,31.20
2023-01-08T19:17:09.609Z,30.23
2023-01-08T19:19:18.455Z,27.60
2023-01-08T19:21:27.531Z,20.60
2023-01-08T19:23:36.189Z,28.93
2023-01-08T19:25:44.756Z,23.43
2023-01-08T19:27:54.594Z,20.10
2023-01-08T19:30:03.152Z,20.90
2023-01-08T19:32:11.619Z,25.07
2023-01-08T19:34:20.526Z,23.67
2023-01-08T19:36:29.375Z,25.93
2023-01-08T19:38:37.907Z,23.93
2023-01-08T19:40:46.322Z,23.07
2023-01-08T19:43:14.108Z,25.47
2023-01-08T19:45:22.511Z,26.80
2023-01-08T19:47:30.980Z,22.30
2023-01-08T19:49:41.531Z,25.20
2023-01-08T19:51:51.028Z,21.70
2023-01-08T19:54:00.950Z,26.70
2023-01-08T19:56:10.410Z,21.17
2023-01-08T19:58:21.263Z,26.60
2023-01-08T20:00:30.616Z,19.87
2023-01-08T20:02:39.318Z,24.30
2023-01-08T20:04:47.887Z,21.07
2023-01-08T20:06:57.896Z,25.53
2023-01-08T20:09:08.911Z,23.50
2023-01-08T20:11:18.692Z,24.20
2023-01-08T20:13:28.699Z,22.63
2023-01-08T20:15:37.154Z,19.80
2023-01-08T20:17:45.607Z,21.80
2023-01-08T20:19:54.088Z,16.07
2023-01-08T20:22:03.091Z,19.87
2023-01-08T20:24:14.134Z,24.67
2023-01-08T20:26:23.049Z,20.20
2023-01-08T20:28:32.853Z,17.77
2023-01-08T20:30:41.284Z,22.73
2023-01-08T20:35:04.881Z,22.93
2023-01-08T20:37:13.340Z,26.70
2023-01-08T20:39:22.151Z,25.43
2023-01-08T20:41:30.840Z,23.00
2023-01-08T20:43:41.592Z,26.77
2023-01-08T20:45:50.661Z,25.47
2023-01-08T20:47:59.242Z,30.00
2023-01-08T20:50:19.236Z,29.93
2023-01-08T20:52:30.727Z,25.37
2023-01-08T20:54:39.288Z,29.57
2023-01-08T20:56:48.024Z,23.87
2023-01-08T20:58:58.676Z,35.10
2023-01-08T21:01:08.426Z,25.97
2023-01-08T21:03:17.045Z,18.67
2023-01-08T21:05:26.448Z,20.00
2023-01-08T21:07:35.369Z,16.43
2023-01-08T21:09:44.349Z,19.40
2023-01-08T21:11:52.787Z,21.27
2023-01-08T21:14:03.071Z,21.07
2023-01-08T21:16:13.010Z,18.00
2023-01-08T21:18:23.258Z,12.40
2023-01-08T21:20:31.680Z,18.30
2023-01-08T21:22:40.243Z,24.17
2023-01-08T21:24:48.709Z,18.47
2023-01-08T21:26:57.214Z,18.93
2023-01-08T21:29:07.512Z,19.47
2023-01-08T21:31:17.138Z,17.73
2023-01-08T21:33:25.612Z,20.87
2023-01-08T21:35:35.070Z,17.33
2023-01-08T21:37:43.463Z,15.63
2023-01-08T21:39:51.920Z,14.53
2023-01-08T21:42:18.203Z,12.53
2023-01-08T21:44:45.809Z,12.73
2023-01-08T21:46:54.225Z,12.07
2023-01-08T21:49:02.698Z,13.30
2023-01-08T21:51:25.427Z,16.30
2023-01-08T21:53:36.203Z,15.27
2023-01-08T21:55:44.952Z,12.97
2023-01-08T21:57:54.192Z,14.33
2023-01-08T22:00:04.580Z,13.70
2023-01-08T22:02:16.207Z,13.97
2023-01-08T22:04:24.662Z,14.03
2023-01-08T22:06:33.114Z,14.43
2023-01-08T22:08:41.620Z,12.33
2023-01-08T22:10:50.113Z,15.97
2023-01-08T22:12:59.258Z,17.90
2023-01-08T22:15:10.786Z,15.50
2023-01-08T22:17:19.257Z,10.80
2023-01-08T22:19:27.823Z,15.47
2023-01-08T22:21:36.359Z,10.13
2023-01-08T22:23:44.965Z,12.57
2023-01-08T22:25:53.385Z,12.13
2023-01-08T22:28:01.855Z,10.57
2023-01-08T22:30:12.748Z,11.03
2023-01-08T22:32:21.239Z,8.43
2023-01-08T22:34:32.270Z,10.40
2023-01-08T22:36:41.439Z,11.73
2023-01-08T22:38:49.829Z,10.10
2023-01-08T22:40:58.654Z,10.27
2023-01-08T22:43:07.406Z,11.90
2023-01-08T22:45:17.523Z,9.03
2023-01-08T22:47:25.935Z,8.43
2023-01-08T22:49:34.537Z,13.00
2023-01-08T22:51:43.544Z,9.10
2023-01-08T22:53:52.524Z,10.50
2023-01-08T22:56:00.994Z,10.07
2023-01-08T22:58:09.737Z,12.00
2023-01-08T23:00:21.405Z,7.50
2023-01-08T23:02:30.109Z,8.13
2023-01-08T23:04:38.569Z,6.97
2023-01-08T23:06:47.925Z,8.90
2023-01-08T23:08:57.041Z,8.13
2023-01-08T23:11:05.608Z,5.43
2023-01-08T23:13:14.054Z,9.13
2023-01-08T23:15:24.194Z,7.33
2023-01-08T23:17:38.995Z,6.33
2023-01-08T23:19:52.981Z,5.97
2023-01-08T23:22:01.555Z,6.93
2023-01-08T23:24:13.246Z,7.37
2023-01-08T23:26:22.613Z,6.53
2023-01-08T23:28:31.532Z,8.70
2023-01-08T23:30:43.320Z,7.97
2023-01-08T23:32:51.945Z,7.13
2023-01-08T23:35:00.446Z,8.33
2023-01-08T23:37:09.250Z,8.93
2023-01-08T23:39:17.808Z,6.67
2023-01-08T23:41:33.791Z,6.53
2023-01-08T23:43:43.675Z,4.67
2023-01-08T23:45:55.759Z,7.40
2023-01-08T23:48:04.369Z,10.23
2023-01-08T23:50:13.155Z,6.87
2023-01-08T23:52:21.736Z,7.17
2023-01-08T23:54:30.291Z,9.70
2023-01-08T23:56:39.254Z,7.40
2023-01-08T23:58:48.075Z,5.30
